createdAt,value
2023-03-04T00:00:43.224Z,25.55
2023-03-04T00:03:12.285Z,24.02
2023-03-04T00:05:42.006Z,25.92
2023-03-04T00:08:10.217Z,29.13
2023-03-04T00:10:38.383Z,25.40
2023-03-04T00:13:06.485Z,25.55
2023-03-04T00:15:34.620Z,25.55
2023-03-04T00:18:03.116Z,25.35
2023-03-04T00:20:31.342Z,25.02
2023-03-04T00:23:00.870Z,24.05
2023-03-04T00:25:29.005Z,26.33
2023-03-04T00:27:58.358Z,25.25
2023-03-04T00:30:26.636Z,25.77
2023-03-04T00:32:54.689Z,24.30
2023-03-04T00:35:22.804Z,24.42
2023-03-04T00:37:51.004Z,25.00
2023-03-04T00:40:20.819Z,26.05
2023-03-04T00:42:48.925Z,26.20
2023-03-04T00:45:17.294Z,25.30
2023-03-04T00:47:45.435Z,25.60
2023-03-04T00:50:13.972Z,24.45
2023-03-04T00:52:42.185Z,26.88
2023-03-04T00:55:11.107Z,25.85
2023-03-04T00:57:40.816Z,25.75
2023-03-04T01:00:12.113Z,23.88
2023-03-04T01:02:40.465Z,26.67
2023-03-04T01:05:09.903Z,25.10
2023-03-04T01:07:38.087Z,26.52
2023-03-04T01:10:07.876Z,25.45
2023-03-04T01:12:36.024Z,24.95
2023-03-04T01:15:06.038Z,27.27
2023-03-04T01:17:34.202Z,25.30
2023-03-04T01:20:02.389Z,25.75
2023-03-04T01:22:30.569Z,24.83
2023-03-04T01:24:58.678Z,24.67
2023-03-04T01:27:26.806Z,25.80
2023-03-04T01:29:54.905Z,24.40
2023-03-04T01:32:24.456Z,25.20
2023-03-04T01:34:52.672Z,25.13
2023-03-04T01:37:20.832Z,24.45
2023-03-04T01:39:49.015Z,25.75
2023-03-04T01:42:20.940Z,24.38
2023-03-04T01:44:50.269Z,23.85
2023-03-04T01:47:19.178Z,25.02
2023-03-04T01:49:53.997Z,24.42
2023-03-04T01:52:22.374Z,23.80
2023-03-04T01:54:50.555Z,24.45
2023-03-04T01:57:20.512Z,23.95
2023-03-04T02:00:09.386Z,23.80
2023-03-04T02:02:37.527Z,24.05
2023-03-04T02:05:07.582Z,23.75
2023-03-04T02:07:35.712Z,24.67
2023-03-04T02:10:04.548Z,21.67
2023-03-04T02:12:32.686Z,24.10
2023-03-04T02:15:00.797Z,24.45
2023-03-04T02:17:29.761Z,21.20
2023-03-04T02:20:04.275Z,20.90
2023-03-04T02:22:37.267Z,22.63
2023-03-04T02:25:12.072Z,21.85
2023-03-04T02:27:41.511Z,20.73
2023-03-04T02:30:12.996Z,21.50
2023-03-04T02:32:41.114Z,20.83
2023-03-04T02:35:17.292Z,22.08
2023-03-04T02:37:45.718Z,21.58
2023-03-04T02:40:18.046Z,19.83
2023-03-04T02:42:47.768Z,19.25
2023-03-04T02:45:39.935Z,20.50
2023-03-04T02:48:08.531Z,20.65
2023-03-04T02:50:43.591Z,21.02
2023-03-04T02:53:12.319Z,20.77
2023-03-04T02:55:41.544Z,22.55
2023-03-04T02:58:11.086Z,20.75
2023-03-04T03:00:39.557Z,20.90
2023-03-04T03:03:08.246Z,20.88
2023-03-04T03:05:37.291Z,20.90
2023-03-04T03:08:06.385Z,19.80
2023-03-04T03:10:34.824Z,20.92
2023-03-04T03:13:02.916Z,20.08
2023-03-04T03:15:32.463Z,20.20
2023-03-04T03:18:00.527Z,20.83
2023-03-04T03:20:28.807Z,20.17
2023-03-04T03:22:56.981Z,19.35
2023-03-04T03:25:25.055Z,17.60
2023-03-04T03:27:53.089Z,18.23
2023-03-04T03:30:21.313Z,18.65
2023-03-04T03:32:50.816Z,19.23
2023-03-04T03:35:19.362Z,19.10
2023-03-04T03:37:49.022Z,18.65
2023-03-04T03:40:17.472Z,17.63
2023-03-04T03:42:45.627Z,19.35
2023-03-04T03:45:13.875Z,19.50
2023-03-04T03:47:42.008Z,18.00
2023-03-04T03:50:12.408Z,18.77
2023-03-04T03:52:40.508Z,16.45
2023-03-04T03:55:09.439Z,19.50
2023-03-04T03:57:37.484Z,18.67
2023-03-04T04:00:06.133Z,16.95
2023-03-04T04:02:34.348Z,18.67
2023-03-04T04:05:02.491Z,17.92
2023-03-04T04:07:33.782Z,19.80
2023-03-04T04:10:01.927Z,17.35
2023-03-04T04:12:30.097Z,19.45
2023-03-04T04:14:58.189Z,16.17
2023-03-04T04:17:26.345Z,17.58
2023-03-04T04:19:54.485Z,17.90
2023-03-04T04:22:23.050Z,17.95
2023-03-04T04:24:52.555Z,17.52
2023-03-04T04:27:20.660Z,17.63
2023-03-04T04:29:48.793Z,17.58
2023-03-04T04:32:17.000Z,16.48
2023-03-04T04:34:45.186Z,17.10
2023-03-04T04:37:13.292Z,15.85
2023-03-04T04:39:41.439Z,18.42
2023-03-04T04:42:11.739Z,16.77
2023-03-04T04:44:40.087Z,17.23
2023-03-04T04:47:08.271Z,16.63
2023-03-04T04:49:36.440Z,18.35
2023-03-04T04:52:04.894Z,16.42
2023-03-04T04:54:33.190Z,18.63
2023-03-04T04:57:01.313Z,24.00
2023-03-04T04:59:30.852Z,22.33
2023-03-04T05:01:58.957Z,17.58
2023-03-04T05:04:27.297Z,17.83
2023-03-04T05:06:55.421Z,16.08
2023-03-04T05:09:23.702Z,17.23
2023-03-04T05:11:51.913Z,18.73
2023-03-04T05:14:20.154Z,18.63
2023-03-04T05:16:49.667Z,19.58
2023-03-04T05:19:17.830Z,18.55
2023-03-04T05:21:45.913Z,17.83
2023-03-04T05:24:13.997Z,19.95
2023-03-04T05:26:42.112Z,18.38
2023-03-04T05:29:10.258Z,19.27
2023-03-04T05:31:38.426Z,16.90
2023-03-04T05:34:07.926Z,17.55
2023-03-04T05:36:36.066Z,18.85
2023-03-04T05:39:04.340Z,18.48
2023-03-04T05:41:32.522Z,17.05
2023-03-04T05:44:00.583Z,18.33
2023-03-04T05:46:28.725Z,17.65
2023-03-04T05:48:56.901Z,19.42
2023-03-04T05:51:26.458Z,20.42
2023-03-04T05:53:54.621Z,18.88
2023-03-04T05:56:22.895Z,20.42
2023-03-04T05:58:51.061Z,19.05
2023-03-04T06:01:19.353Z,19.70
2023-03-04T06:03:48.698Z,19.23
2023-03-04T06:06:17.017Z,19.20
2023-03-04T06:08:46.451Z,17.80
2023-03-04T06:11:14.518Z,18.92
2023-03-04T06:13:42.581Z,18.92
2023-03-04T06:16:11.139Z,16.73
2023-03-04T06:18:39.848Z,18.42
2023-03-04T06:21:07.916Z,18.20
2023-03-04T06:23:35.918Z,19.27
2023-03-04T06:26:09.282Z,18.13
2023-03-04T06:28:37.299Z,18.08
2023-03-04T06:31:05.706Z,18.08
2023-03-04T06:33:34.213Z,19.33
2023-03-04T06:36:02.325Z,18.30
2023-03-04T06:38:30.433Z,18.52
2023-03-04T06:40:58.480Z,18.10
2023-03-04T06:43:27.977Z,18.60
2023-03-04T06:45:56.038Z,19.13
2023-03-04T06:48:24.152Z,16.92
2023-03-04T06:50:52.276Z,17.83
2023-03-04T06:53:20.437Z,18.33
2023-03-04T06:55:49.508Z,18.88
2023-03-04T06:58:18.228Z,18.67
2023-03-04T07:00:47.718Z,19.83
2023-03-04T07:03:15.863Z,19.25
2023-03-04T07:05:44.578Z,22.73
2023-03-04T07:08:12.736Z,19.52
2023-03-04T07:10:40.835Z,17.60
2023-03-04T07:13:08.934Z,17.70
2023-03-04T07:15:37.331Z,17.73
2023-03-04T07:18:06.974Z,18.83
2023-03-04T07:20:35.121Z,17.80
2023-03-04T07:23:03.207Z,18.65
2023-03-04T07:25:31.343Z,16.77
2023-03-04T07:27:59.400Z,17.30
2023-03-04T07:30:27.701Z,18.30
2023-03-04T07:32:58.481Z,18.85
2023-03-04T07:35:28.082Z,17.58
2023-03-04T07:37:56.249Z,16.45
2023-03-04T07:40:24.551Z,17.70
2023-03-04T07:42:52.986Z,16.35
2023-03-04T07:45:21.420Z,16.25
2023-03-04T07:47:49.901Z,17.20
2023-03-04T07:50:19.011Z,16.40
2023-03-04T07:52:50.940Z,16.83
2023-03-04T07:55:19.966Z,17.67
2023-03-04T07:57:49.222Z,18.23
2023-03-04T08:00:18.848Z,17.67
2023-03-04T08:02:47.015Z,16.50
2023-03-04T08:05:15.530Z,17.70
2023-03-04T08:07:43.673Z,16.60
2023-03-04T08:10:13.734Z,15.75
2023-03-04T08:12:41.776Z,16.02
2023-03-04T08:15:10.825Z,15.90
2023-03-04T08:17:39.508Z,16.40
2023-03-04T08:20:08.742Z,16.60
2023-03-04T08:22:36.867Z,16.75
2023-03-04T08:25:05.544Z,16.48
2023-03-04T08:27:34.973Z,15.27
2023-03-04T08:30:03.105Z,15.10
2023-03-04T08:32:31.392Z,16.80
2023-03-04T08:35:02.323Z,14.77
2023-03-04T08:37:31.267Z,15.05
2023-03-04T08:39:59.404Z,15.98
2023-03-04T08:42:27.490Z,14.20
2023-03-04T08:44:56.937Z,14.43
2023-03-04T08:47:25.077Z,16.67
2023-03-04T08:49:53.730Z,18.92
2023-03-04T08:52:21.883Z,17.98
2023-03-04T08:54:49.943Z,16.73
2023-03-04T08:57:18.068Z,16.73
2023-03-04T08:59:46.212Z,17.15
2023-03-04T09:02:17.045Z,17.90
2023-03-04T09:04:45.183Z,16.60
2023-03-04T09:07:14.168Z,21.83
2023-03-04T09:09:42.833Z,15.57
2023-03-04T09:12:11.527Z,18.58
2023-03-04T09:14:39.608Z,15.50
2023-03-04T09:17:09.415Z,16.08
2023-03-04T09:19:38.948Z,15.00
2023-03-04T09:22:07.099Z,15.10
2023-03-04T09:24:35.322Z,16.60
2023-03-04T09:27:03.404Z,15.75
2023-03-04T09:29:31.741Z,16.27
2023-03-04T09:32:00.383Z,16.05
2023-03-04T09:34:28.591Z,15.40
2023-03-04T09:36:58.121Z,14.30
2023-03-04T09:39:26.247Z,17.58
2023-03-04T09:41:58.309Z,16.40
2023-03-04T09:44:30.809Z,16.40
2023-03-04T09:47:02.311Z,18.40
2023-03-04T09:49:31.332Z,17.67
2023-03-04T09:52:05.852Z,16.38
2023-03-04T09:55:05.041Z,16.85
2023-03-04T09:57:47.982Z,17.40
2023-03-04T10:00:19.960Z,17.02
2023-03-04T10:03:14.171Z,18.67
2023-03-04T10:05:47.796Z,17.83
2023-03-04T10:08:34.510Z,18.73
2023-03-04T10:11:04.756Z,22.33
2023-03-04T10:13:39.801Z,19.77
2023-03-04T10:16:13.680Z,20.25
2023-03-04T10:18:48.590Z,19.75
2023-03-04T10:21:24.512Z,19.80
2023-03-04T10:23:54.876Z,18.67
2023-03-04T10:26:23.733Z,19.90
2023-03-04T10:28:51.872Z,18.25
2023-03-04T10:31:28.408Z,19.00
2023-03-04T10:33:56.508Z,19.00
2023-03-04T10:36:41.242Z,18.65
2023-03-04T10:39:14.386Z,23.00
2023-03-04T10:41:45.339Z,21.03
2023-03-04T10:44:17.770Z,18.67
2023-03-04T10:46:47.785Z,21.48
2023-03-04T10:49:18.176Z,22.85
2023-03-04T10:51:47.850Z,21.67
2023-03-04T10:54:26.303Z,20.77
2023-03-04T10:56:57.862Z,21.73
2023-03-04T10:59:43.892Z,20.70
2023-03-04T11:02:33.319Z,21.77
2023-03-04T11:05:17.706Z,20.17
2023-03-04T11:07:55.824Z,19.70
2023-03-04T11:10:30.982Z,22.67
2023-03-04T11:13:03.789Z,23.77
2023-03-04T11:15:49.386Z,24.30
2023-03-04T11:18:18.521Z,22.70
2023-03-04T11:20:49.900Z,24.30
2023-03-04T11:23:19.722Z,24.53
2023-03-04T11:25:53.843Z,21.10
2023-03-04T11:28:25.472Z,21.77
2023-03-04T11:30:56.446Z,21.67
2023-03-04T11:33:30.197Z,21.70
2023-03-04T11:36:07.920Z,22.03
2023-03-04T11:38:40.551Z,22.60
2023-03-04T11:41:16.318Z,21.80
2023-03-04T11:43:47.032Z,23.27
2023-03-04T11:46:47.632Z,24.87
2023-03-04T11:49:45.594Z,25.00
2023-03-04T11:52:27.480Z,21.52
2023-03-04T11:55:07.504Z,23.70
2023-03-04T11:57:41.344Z,20.90
2023-03-04T12:00:27.978Z,25.57
2023-03-04T12:03:17.543Z,24.27
2023-03-04T12:05:55.824Z,20.97
2023-03-04T12:08:36.226Z,22.00
2023-03-04T12:11:10.392Z,21.77
2023-03-04T12:14:01.656Z,22.80
2023-03-04T12:17:02.443Z,22.10
2023-03-04T12:19:43.532Z,21.60
2023-03-04T12:22:28.540Z,22.30
2023-03-04T12:25:16.245Z,24.05
2023-03-04T12:27:54.660Z,23.27
2023-03-04T12:30:42.812Z,24.67
2023-03-04T12:33:21.811Z,21.27
2023-03-04T12:35:59.052Z,22.37
2023-03-04T12:38:40.110Z,23.40
2023-03-04T12:41:24.014Z,21.00
2023-03-04T12:43:57.921Z,23.10
2023-03-04T12:46:38.605Z,22.13
2023-03-04T12:49:21.920Z,23.53
2023-03-04T12:51:58.829Z,23.40
2023-03-04T12:54:33.279Z,20.90
2023-03-04T12:57:05.891Z,21.07
2023-03-04T12:59:38.859Z,20.10
2023-03-04T13:02:37.236Z,21.87
2023-03-04T13:05:30.799Z,21.00
2023-03-04T13:08:08.092Z,21.87
2023-03-04T13:10:36.539Z,22.20
2023-03-04T13:13:05.009Z,20.67
2023-03-04T13:15:36.029Z,21.90
2023-03-04T13:18:33.325Z,22.10
2023-03-04T13:21:18.992Z,22.70
2023-03-04T13:23:47.200Z,21.50
2023-03-04T13:26:24.778Z,26.08
2023-03-04T13:29:10.852Z,23.30
2023-03-04T13:32:01.301Z,24.03
2023-03-04T13:34:51.059Z,22.53
2023-03-04T13:37:31.775Z,22.27
2023-03-04T13:40:33.164Z,23.13
2023-03-04T13:43:26.986Z,25.38
2023-03-04T13:45:55.895Z,23.13
2023-03-04T13:48:32.086Z,24.63
2023-03-04T13:51:01.841Z,22.27
2023-03-04T13:53:42.405Z,25.37
2023-03-04T13:56:33.218Z,23.87
2023-03-04T13:59:28.384Z,25.83
2023-03-04T14:02:15.011Z,23.87
2023-03-04T14:04:45.000Z,24.73
2023-03-04T14:07:25.549Z,26.40
2023-03-04T14:10:00.876Z,22.98
2023-03-04T14:12:31.709Z,27.02
2023-03-04T14:15:02.196Z,24.75
2023-03-04T14:17:33.382Z,23.52
2023-03-04T14:20:03.192Z,24.50
2023-03-04T14:22:35.032Z,24.50
2023-03-04T14:25:05.364Z,25.07
2023-03-04T14:27:36.249Z,22.67
2023-03-04T14:30:08.712Z,21.70
2023-03-04T14:32:36.953Z,23.70
2023-03-04T14:35:07.992Z,23.37
2023-03-04T14:37:45.350Z,22.70
2023-03-04T14:40:22.445Z,23.23
2023-03-04T14:42:56.140Z,22.90
2023-03-04T14:45:25.864Z,22.60
2023-03-04T14:47:58.288Z,22.00
2023-03-04T14:50:26.467Z,22.95
2023-03-04T14:53:16.632Z,21.25
2023-03-04T14:55:58.354Z,21.70
2023-03-04T14:58:28.244Z,21.50
2023-03-04T15:01:16.033Z,21.40
2023-03-04T15:03:47.823Z,18.67
2023-03-04T15:06:20.889Z,21.35
2023-03-04T15:08:57.778Z,21.73
2023-03-04T15:11:28.128Z,21.40
2023-03-04T15:13:58.212Z,23.67
2023-03-04T15:16:28.254Z,21.70
2023-03-04T15:18:58.938Z,23.30
2023-03-04T15:21:32.269Z,22.10
2023-03-04T15:24:03.509Z,23.10
2023-03-04T15:26:33.135Z,22.40
2023-03-04T15:29:01.315Z,20.98
2023-03-04T15:31:31.220Z,19.58
2023-03-04T15:33:59.437Z,21.17
2023-03-04T15:36:27.654Z,20.42
2023-03-04T15:38:55.758Z,22.60
2023-03-04T15:41:27.118Z,21.83
2023-03-04T15:43:56.094Z,20.20
2023-03-04T15:46:24.492Z,21.20
2023-03-04T15:48:52.771Z,20.60
2023-03-04T15:51:23.223Z,21.90
2023-03-04T15:53:53.484Z,20.85
2023-03-04T15:56:26.202Z,21.75
2023-03-04T15:58:56.581Z,22.33
2023-03-04T16:01:25.576Z,20.13
2023-03-04T16:03:54.893Z,21.63
2023-03-04T16:06:30.742Z,20.93
2023-03-04T16:09:01.015Z,19.07
2023-03-04T16:11:33.804Z,19.40
2023-03-04T16:14:01.947Z,20.25
2023-03-04T16:16:30.075Z,20.60
2023-03-04T16:18:58.388Z,23.65
2023-03-04T16:21:26.689Z,23.10
2023-03-04T16:23:55.925Z,18.73
2023-03-04T16:26:25.713Z,19.37
2023-03-04T16:28:55.627Z,18.02
2023-03-04T16:31:24.374Z,17.30
2023-03-04T16:33:52.508Z,17.73
2023-03-04T16:36:24.340Z,20.70
2023-03-04T16:38:54.596Z,23.77
2023-03-04T16:41:27.765Z,23.73
2023-03-04T16:44:00.615Z,20.45
2023-03-04T16:46:30.172Z,20.07
2023-03-04T16:48:58.774Z,21.60
2023-03-04T16:51:27.051Z,21.73
2023-03-04T16:53:57.472Z,19.08
2023-03-04T16:56:25.546Z,19.23
2023-03-04T16:58:54.575Z,20.42
2023-03-04T17:01:26.848Z,17.20
2023-03-04T17:03:55.979Z,17.48
2023-03-04T17:06:25.256Z,18.45
2023-03-04T17:08:53.483Z,18.77
2023-03-04T17:11:24.285Z,17.45
2023-03-04T17:13:52.732Z,19.38
2023-03-04T17:16:21.038Z,17.98
2023-03-04T17:18:51.262Z,16.73
2023-03-04T17:21:23.441Z,17.38
2023-03-04T17:23:52.127Z,17.52
2023-03-04T17:26:22.805Z,16.87
2023-03-04T17:28:51.814Z,17.52
2023-03-04T17:31:22.249Z,15.98
2023-03-04T17:33:52.177Z,15.50
2023-03-04T17:36:20.940Z,15.80
2023-03-04T17:38:52.063Z,17.15
2023-03-04T17:41:20.948Z,16.50
2023-03-04T17:43:51.380Z,18.38
2023-03-04T17:46:21.817Z,15.68
2023-03-04T17:48:52.940Z,19.10
2023-03-04T17:51:21.120Z,18.40
2023-03-04T17:53:49.209Z,17.48
2023-03-04T17:56:17.458Z,18.60
2023-03-04T17:58:45.893Z,18.77
2023-03-04T18:01:19.385Z,17.60
2023-03-04T18:03:48.312Z,17.60
2023-03-04T18:06:18.372Z,16.80
2023-03-04T18:08:46.800Z,16.90
2023-03-04T18:11:15.001Z,16.33
2023-03-04T18:13:43.967Z,15.90
2023-03-04T18:16:14.797Z,15.77
2023-03-04T18:18:43.771Z,18.13
2023-03-04T18:21:13.636Z,17.00
2023-03-04T18:23:43.645Z,17.60
2023-03-04T18:26:12.873Z,17.88
2023-03-04T18:28:41.041Z,16.93
2023-03-04T18:31:10.472Z,15.05
2023-03-04T18:33:39.763Z,16.50
2023-03-04T18:36:10.330Z,16.00
2023-03-04T18:38:38.777Z,14.90
2023-03-04T18:41:10.549Z,15.93
2023-03-04T18:43:39.105Z,16.88
2023-03-04T18:46:10.037Z,17.20
2023-03-04T18:48:41.315Z,18.20
2023-03-04T18:51:09.557Z,17.02
2023-03-04T18:53:37.838Z,16.33
2023-03-04T18:56:12.569Z,16.52
2023-03-04T18:58:42.574Z,15.98
2023-03-04T19:01:13.044Z,16.08
2023-03-04T19:03:42.431Z,16.15
2023-03-04T19:06:10.852Z,16.92
2023-03-04T19:08:39.618Z,16.20
2023-03-04T19:11:09.316Z,17.58
2023-03-04T19:13:37.934Z,17.20
2023-03-04T19:16:06.840Z,13.98
2023-03-04T19:18:35.051Z,14.75
2023-03-04T19:21:05.340Z,15.45
2023-03-04T19:23:33.790Z,14.18
2023-03-04T19:26:02.030Z,14.35
2023-03-04T19:28:32.021Z,14.48
2023-03-04T19:31:00.547Z,16.63
2023-03-04T19:33:28.816Z,17.25
2023-03-04T19:35:56.982Z,18.50
2023-03-04T19:38:25.076Z,15.02
2023-03-04T19:40:53.460Z,16.00
2023-03-04T19:43:21.675Z,16.48
2023-03-04T19:45:56.744Z,14.73
2023-03-04T19:48:25.584Z,14.90
2023-03-04T19:50:53.744Z,20.63
2023-03-04T19:53:22.360Z,16.10
2023-03-04T19:55:50.757Z,16.05
2023-03-04T19:58:19.486Z,16.95
2023-03-04T20:00:47.769Z,16.13
2023-03-04T20:03:21.027Z,22.30
2023-03-04T20:05:49.164Z,16.67
2023-03-04T20:08:17.296Z,15.45
2023-03-04T20:10:45.466Z,16.20
2023-03-04T20:13:13.596Z,15.70
2023-03-04T20:15:44.294Z,17.50
2023-03-04T20:18:12.513Z,18.27
2023-03-04T20:20:42.102Z,16.38
2023-03-04T20:23:11.556Z,17.60
2023-03-04T20:25:41.626Z,18.23
2023-03-04T20:28:10.268Z,16.63
2023-03-04T20:30:39.227Z,18.10
2023-03-04T20:33:07.360Z,18.02
2023-03-04T20:35:35.639Z,19.45
2023-03-04T20:38:05.269Z,21.40
2023-03-04T20:40:35.805Z,18.02
2023-03-04T20:43:05.623Z,23.70
2023-03-04T20:45:34.593Z,18.45
2023-03-04T20:48:02.950Z,18.15
2023-03-04T20:50:31.316Z,17.80
2023-03-04T20:52:59.501Z,19.67
2023-03-04T20:55:30.346Z,17.40
2023-03-04T20:57:58.370Z,17.58
2023-03-04T21:00:26.611Z,17.75
2023-03-04T21:02:55.173Z,15.77
2023-03-04T21:05:23.348Z,18.35
2023-03-04T21:07:51.591Z,19.17
2023-03-04T21:10:20.835Z,18.40
2023-03-04T21:12:50.607Z,18.05
2023-03-04T21:15:18.911Z,20.83
2023-03-04T21:17:47.080Z,19.83
2023-03-04T21:20:16.255Z,19.50
2023-03-04T21:22:44.406Z,19.50
2023-03-04T21:25:12.828Z,18.05
2023-03-04T21:27:42.774Z,20.98
2023-03-04T21:30:13.672Z,19.45
2023-03-04T21:32:42.303Z,19.33
2023-03-04T21:35:14.777Z,18.15
2023-03-04T21:37:42.986Z,19.85
2023-03-04T21:40:12.792Z,21.38
2023-03-04T21:42:41.326Z,19.13
2023-03-04T21:45:12.670Z,20.75
2023-03-04T21:47:41.340Z,19.00
2023-03-04T21:50:10.658Z,20.20
2023-03-04T21:52:40.636Z,18.30
2023-03-04T21:55:09.455Z,20.00
2023-03-04T21:57:37.651Z,18.38
2023-03-04T22:00:07.112Z,18.25
2023-03-04T22:02:36.587Z,18.80
2023-03-04T22:05:04.985Z,18.48
2023-03-04T22:07:34.633Z,19.63
2023-03-04T22:10:06.617Z,18.42
2023-03-04T22:12:34.827Z,17.45
2023-03-04T22:15:03.078Z,18.77
2023-03-04T22:17:31.185Z,17.88
2023-03-04T22:20:02.419Z,18.58
2023-03-04T22:22:31.320Z,16.08
2023-03-04T22:25:00.297Z,17.10
2023-03-04T22:27:28.937Z,18.85
2023-03-04T22:29:57.515Z,19.67
2023-03-04T22:32:25.804Z,17.55
2023-03-04T22:34:54.004Z,18.45
2023-03-04T22:37:23.605Z,17.95
2023-03-04T22:39:51.768Z,18.13
2023-03-04T22:42:19.879Z,17.67
2023-03-04T22:44:48.025Z,19.83
2023-03-04T22:47:16.374Z,17.40
2023-03-04T22:49:44.943Z,17.77
2023-03-04T22:52:13.205Z,16.00
2023-03-04T22:54:42.948Z,16.92
2023-03-04T22:57:11.700Z,17.57
2023-03-04T22:59:40.360Z,19.00
2023-03-04T23:02:10.770Z,16.98
2023-03-04T23:04:38.945Z,18.83
2023-03-04T23:07:08.226Z,18.65
2023-03-04T23:09:36.358Z,16.50
2023-03-04T23:12:06.563Z,17.02
2023-03-04T23:14:34.688Z,18.70
2023-03-04T23:17:02.823Z,17.50
2023-03-04T23:19:30.969Z,19.13
2023-03-04T23:22:00.459Z,20.52
2023-03-04T23:24:29.535Z,19.23
2023-03-04T23:26:57.660Z,19.05
2023-03-04T23:29:27.221Z,23.02
2023-03-04T23:31:55.305Z,18.50
2023-03-04T23:34:24.439Z,18.67
2023-03-04T23:36:54.069Z,17.25
2023-03-04T23:39:22.238Z,16.95
2023-03-04T23:41:50.341Z,18.42
2023-03-04T23:44:18.450Z,17.05
2023-03-04T23:46:47.897Z,27.52
2023-03-04T23:49:17.948Z,37.78
2023-03-04T23:51:46.896Z,18.95
2023-03-04T23:54:15.424Z,18.73
2023-03-04T23:56:43.652Z,25.92
2023-03-04T23:59:13.251Z,22.45
